Terminal Aerodrome Forecast
Issued by NWS Knoxville/Tri Cities, TN

Home | Current Version | Previous Version | Text Only | Print | Product List | Glossary On
Versions: 1 2 3 4 5 6 7 8 9 10 11 12 13 14 15 16 17 18 19 20 21 22 23 24
000
FTUS44 KMRX 271722
TAFCHA
TAF
KCHA 271722Z 2718/2818 18008G16KT P6SM VCTS SCT050CB BKN150
     FM280000 VRB03KT P6SM SCT060 BKN150
     FM281200 20005KT 4SM -SHRA SCT015 BKN040=

USA.gov is the U.S. government's official web portal to all federal, state and local government web resources and services.